Time;durP1;ratioP1;P1;durP2;ratioP2;P2;SDS_P1;SDS_P2;PMS_P1;PMS_P2;Temp;Humidity;BMP_temperature;BMP_pressure;BME280_temperature;BME280_humidity;BME280_pressure;Samples;Min_cycle;Max_cycle;Signal;HPM_P1;HPM_P2
2021/05/17 00:01:15;;;;;;;;;;;11.00;99.90;;;;;;5014548;28;19913;-82
2021/05/17 00:03:41;;;;;;;;;;;11.00;99.90;;;;;;5015213;28;19992;-82
2021/05/17 00:06:07;;;;;;;;;;;11.00;99.90;;;;;;4997314;28;20004;-82
2021/05/17 00:08:32;;;;;;;;;;;10.90;99.90;;;;;;5014810;28;19960;-81
2021/05/17 00:10:58;;;;;;;;;;;10.90;99.90;;;;;;4996734;28;20004;-82
2021/05/17 00:13:24;;;;;;;;;;;10.90;99.90;;;;;;4997218;28;20255;-82
2021/05/17 00:15:49;;;;;;;;;;;10.90;99.90;;;;;;5013267;28;19913;-82
2021/05/17 00:18:15;;;;;;;;;;;10.90;99.90;;;;;;5013266;28;20400;-82
2021/05/17 00:20:41;;;;;;;;;;;10.90;99.90;;;;;;4996308;28;20366;-82
2021/05/17 00:23:06;;;;;;;;;;;11.00;99.90;;;;;;4996935;28;19914;-82
2021/05/17 00:25:32;;;;;;;;;;;11.00;99.90;;;;;;5014497;28;20396;-82
2021/05/17 00:27:58;;;;;;;;;;;10.90;99.90;;;;;;4996829;28;19924;-83
2021/05/17 00:30:26;;;;;;;;;;;10.90;99.90;;;;;;4996722;28;19992;-82
2021/05/17 00:32:52;;;;;;;;;;;11.00;99.90;;;;;;5014449;28;19914;-83
2021/05/17 00:35:18;;;;;;;;;;;11.00;99.90;;;;;;4998106;28;19914;-82
2021/05/17 00:37:43;;;;;;;;;;;11.00;99.90;;;;;;4997085;28;19914;-82
2021/05/17 00:40:10;;;;;;;;;;;11.10;99.90;;;;;;5013007;28;19914;-82
2021/05/17 00:42:36;;;;;;;;;;;11.00;99.90;;;;;;5013382;28;19919;-82
2021/05/17 00:45:04;;;;;;;;;;;11.00;99.90;;;;;;5014425;28;20372;-82
2021/05/17 00:47:31;;;;;;;;;;;11.00;99.90;;;;;;4996420;28;19997;-82
2021/05/17 00:49:57;;;;;;;;;;;11.10;99.90;;;;;;4997097;28;19914;-82
2021/05/17 00:52:24;;;;;;;;;;;11.10;99.90;;;;;;5013192;28;20366;-82
2021/05/17 00:54:50;;;;;;;;;;;11.10;99.90;;;;;;4996490;28;19957;-82
2021/05/17 00:57:16;;;;;;;;;;;11.10;99.90;;;;;;5012615;28;19913;-82
2021/05/17 00:59:41;;;;;;;;;;;11.10;99.90;;;;;;5012578;28;19914;-82
2021/05/17 01:02:08;;;;;;;;;;;11.10;99.90;;;;;;5014144;28;19977;-82
2021/05/17 01:04:33;;;;;;;;;;;11.10;99.90;;;;;;4997181;28;19929;-81
2021/05/17 01:06:59;;;;;;;;;;;11.00;99.90;;;;;;4997124;28;19922;-82
2021/05/17 01:09:28;;;;;;;;;;;11.10;99.90;;;;;;5014886;28;19914;-82
2021/05/17 01:11:56;;;;;;;;;;;11.10;99.90;;;;;;5014288;28;20430;-82
2021/05/17 01:14:21;;;;;;;;;;;11.10;99.90;;;;;;4996164;28;20336;-82
2021/05/17 01:16:47;;;;;;;;;;;11.10;99.90;;;;;;4996798;28;19913;-82
2021/05/17 01:19:12;;;;;;;;;;;11.10;99.90;;;;;;5006330;28;19917;-82
2021/05/17 01:21:39;;;;;;;;;;;11.10;99.90;;;;;;5018055;28;19913;-81
2021/05/17 01:24:05;;;;;;;;;;;11.10;99.90;;;;;;5000395;28;20009;-82
2021/05/17 01:26:34;;;;;;;;;;;11.10;99.90;;;;;;5001359;28;20374;-82
2021/05/17 01:29:00;;;;;;;;;;;11.00;99.90;;;;;;5017539;28;19921;-81
2021/05/17 01:31:26;;;;;;;;;;;11.10;99.90;;;;;;5001121;28;19972;-82
2021/05/17 01:33:51;;;;;;;;;;;11.10;99.90;;;;;;5013090;28;19920;-82
2021/05/17 01:36:18;;;;;;;;;;;11.10;99.90;;;;;;5036914;28;19908;-81
2021/05/17 01:38:44;;;;;;;;;;;11.10;99.90;;;;;;5036666;28;19967;-81
2021/05/17 01:41:11;;;;;;;;;;;11.00;99.90;;;;;;5038673;28;19902;-81
2021/05/17 01:43:40;;;;;;;;;;;11.00;99.90;;;;;;5039384;28;19901;-81
2021/05/17 01:46:07;;;;;;;;;;;11.10;99.90;;;;;;5039754;28;19910;-82
2021/05/17 01:48:33;;;;;;;;;;;11.10;99.90;;;;;;5041347;28;20018;-81
2021/05/17 01:50:59;;;;;;;;;;;11.10;99.90;;;;;;5041118;28;19921;-81
2021/05/17 01:53:27;;;;;;;;;;;11.10;99.90;;;;;;5040232;28;19902;-81
2021/05/17 01:55:53;;;;;;;;;;;11.10;99.90;;;;;;5040104;28;19925;-81
2021/05/17 01:58:20;;;;;;;;;;;11.10;99.90;;;;;;5010707;28;19968;-81
2021/05/17 02:00:45;;;;;;;;;;;11.10;99.90;;;;;;5023814;28;19953;-82
2021/05/17 02:03:11;;;;;;;;;;;11.10;99.90;;;;;;5021895;28;19936;-81
2021/05/17 02:05:36;;;;;;;;;;;11.10;99.90;;;;;;5003856;28;19921;-81
2021/05/17 02:08:03;;;;;;;;;;;11.10;99.90;;;;;;5001923;28;20362;-80
2021/05/17 02:10:29;;;;;;;;;;;11.20;99.90;;;;;;5001010;28;19964;-81
2021/05/17 02:12:58;;;;;;;;;;;11.20;99.90;;;;;;4999812;28;19914;-82
2021/05/17 02:15:24;;;;;;;;;;;11.20;99.90;;;;;;5000467;28;19945;-81
2021/05/17 02:18:03;;;;;;;;;;;11.20;99.90;;;;;;5014023;28;19913;-80
2021/05/17 02:20:30;;;;;;;;;;;11.20;99.90;;;;;;4996099;28;19913;-81
2021/05/17 02:22:57;;;;;;;;;;;11.20;99.90;;;;;;5016849;28;19913;-81
2021/05/17 02:25:22;;;;;;;;;;;11.20;99.90;;;;;;4999200;28;19921;-81
2021/05/17 02:27:48;;;;;;;;;;;11.20;99.90;;;;;;5015707;28;19921;-81
2021/05/17 02:30:15;;;;;;;;;;;11.20;99.90;;;;;;5016433;28;20285;-81
2021/05/17 02:32:40;;;;;;;;;;;11.20;99.90;;;;;;4998717;28;20322;-81
2021/05/17 02:35:07;;;;;;;;;;;11.20;99.90;;;;;;4999244;28;19964;-82
2021/05/17 02:37:33;;;;;;;;;;;11.20;99.90;;;;;;5016365;28;19968;-81
2021/05/17 02:39:59;;;;;;;;;;;11.20;99.90;;;;;;5016020;28;20421;-82
2021/05/17 02:42:27;;;;;;;;;;;11.20;99.90;;;;;;4998640;28;19914;-82
2021/05/17 02:44:52;;;;;;;;;;;11.20;99.90;;;;;;4998470;28;20616;-82
2021/05/17 02:47:18;;;;;;;;;;;11.20;99.90;;;;;;5016370;28;19968;-82
2021/05/17 02:49:44;;;;;;;;;;;11.20;99.90;;;;;;5012899;28;19997;-80
2021/05/17 02:52:15;;;;;;;;;;;11.20;99.90;;;;;;5019281;28;19914;-81
2021/05/17 02:54:42;;;;;;;;;;;11.20;99.90;;;;;;5008460;28;19914;-82
2021/05/17 02:57:08;;;;;;;;;;;11.20;99.90;;;;;;4975961;28;19965;-79
2021/05/17 02:59:37;;;;;;;;;;;11.20;99.90;;;;;;4976084;28;19956;-80
2021/05/17 03:02:06;;;;;;;;;;;11.30;99.90;;;;;;4975804;28;20008;-80
2021/05/17 03:04:32;;;;;;;;;;;11.20;99.90;;;;;;4975275;28;19922;-80
2021/05/17 03:07:09;;;;;;;;;;;11.20;99.90;;;;;;4977367;28;20282;-81
2021/05/17 03:09:35;;;;;;;;;;;11.20;99.90;;;;;;4976065;28;19925;-81
2021/05/17 03:12:02;;;;;;;;;;;11.20;99.90;;;;;;4976114;28;19914;-81
2021/05/17 03:14:28;;;;;;;;;;;11.20;99.90;;;;;;4975809;28;19914;-80
2021/05/17 03:16:55;;;;;;;;;;;11.20;99.90;;;;;;4975550;28;19914;-80
2021/05/17 03:19:21;;;;;;;;;;;11.10;99.90;;;;;;5007081;28;19917;-81
2021/05/17 03:21:46;;;;;;;;;;;11.10;99.90;;;;;;4974991;28;19914;-79
2021/05/17 03:24:12;;;;;;;;;;;11.20;99.90;;;;;;5007294;28;19918;-80
2021/05/17 03:26:38;;;;;;;;;;;11.20;99.90;;;;;;5008111;28;20302;-80
2021/05/17 03:29:04;;;;;;;;;;;11.20;99.90;;;;;;4975897;28;19957;-80
2021/05/17 03:31:29;;;;;;;;;;;11.30;99.90;;;;;;5008048;28;19939;-80
2021/05/17 03:33:58;;;;;;;;;;;11.30;99.90;;;;;;4974419;28;19976;-80
2021/05/17 03:36:24;;;;;;;;;;;11.30;99.90;;;;;;5006813;28;19982;-80
2021/05/17 03:38:49;;;;;;;;;;;11.30;99.90;;;;;;4974151;28;19918;-80
2021/05/17 03:41:15;;;;;;;;;;;11.30;99.90;;;;;;5007293;28;20060;-80
2021/05/17 03:43:40;;;;;;;;;;;11.20;99.90;;;;;;4975658;28;19929;-80
2021/05/17 03:46:06;;;;;;;;;;;11.30;99.90;;;;;;4976420;28;19925;-82
2021/05/17 03:48:31;;;;;;;;;;;11.30;99.90;;;;;;4975799;28;20451;-80
2021/05/17 03:50:57;;;;;;;;;;;11.30;99.90;;;;;;4975851;28;19973;-81
2021/05/17 03:53:22;;;;;;;;;;;11.20;99.90;;;;;;4974475;28;19925;-81
2021/05/17 03:55:48;;;;;;;;;;;11.20;99.90;;;;;;4989241;28;19925;-81
2021/05/17 03:58:14;;;;;;;;;;;11.20;99.90;;;;;;4996694;28;19968;-80
2021/05/17 04:00:39;;;;;;;;;;;11.20;99.90;;;;;;4996107;28;19914;-80
2021/05/17 04:03:11;;;;;;;;;;;11.20;99.90;;;;;;4996341;28;19914;-80
2021/05/17 04:13:26;;;;;;;;;;;11.30;99.90;;;;;;5010701;28;20289;-80
2021/05/17 04:15:52;;;;;;;;;;;11.30;99.90;;;;;;5015541;28;19941;-80
2021/05/17 04:18:20;;;;;;;;;;;11.40;99.90;;;;;;5016412;28;19904;-79
2021/05/17 04:20:46;;;;;;;;;;;11.40;99.90;;;;;;5003482;28;20381;-81
2021/05/17 04:23:11;;;;;;;;;;;11.40;99.90;;;;;;4999494;28;19914;-80
2021/05/17 04:25:37;;;;;;;;;;;11.30;99.90;;;;;;5030698;28;19929;-81
2021/05/17 04:28:03;;;;;;;;;;;11.40;99.90;;;;;;4997076;28;20297;-80
2021/05/17 04:30:28;;;;;;;;;;;11.40;99.90;;;;;;4997182;28;19914;-81
2021/05/17 04:32:54;;;;;;;;;;;11.40;99.90;;;;;;4995603;28;20016;-80
2021/05/17 04:35:19;;;;;;;;;;;11.40;99.90;;;;;;4995423;28;19957;-81
2021/05/17 04:37:45;;;;;;;;;;;11.40;99.90;;;;;;4994767;28;20376;-81
2021/05/17 04:40:11;;;;;;;;;;;11.40;99.90;;;;;;4995390;28;19914;-81
2021/05/17 04:42:37;;;;;;;;;;;11.40;99.90;;;;;;5010353;28;19956;-82
2021/05/17 04:45:04;;;;;;;;;;;11.40;99.90;;;;;;4997932;28;19925;-81
2021/05/17 04:47:29;;;;;;;;;;;11.30;99.90;;;;;;4996902;28;20012;-81
2021/05/17 04:49:55;;;;;;;;;;;11.20;99.90;;;;;;5026823;28;19992;-81
2021/05/17 04:52:20;;;;;;;;;;;11.20;99.90;;;;;;4994525;28;19918;-81
2021/05/17 04:54:46;;;;;;;;;;;11.20;99.90;;;;;;5004935;28;20055;-80
2021/05/17 04:57:11;;;;;;;;;;;11.10;99.90;;;;;;5024506;28;19922;-81
2021/05/17 04:59:37;;;;;;;;;;;11.10;99.90;;;;;;5025604;28;20312;-80
2021/05/17 05:02:05;;;;;;;;;;;11.10;99.90;;;;;;5021685;28;19918;-79
2021/05/17 05:04:30;;;;;;;;;;;11.10;99.90;;;;;;5015990;28;19921;-80
2021/05/17 05:06:57;;;;;;;;;;;11.20;99.90;;;;;;5032149;28;19937;-80
2021/05/17 05:09:22;;;;;;;;;;;11.20;99.90;;;;;;5037187;28;19924;-79
2021/05/17 05:11:48;;;;;;;;;;;11.20;99.90;;;;;;5013168;28;19949;-79
2021/05/17 05:14:13;;;;;;;;;;;11.30;99.90;;;;;;5030921;28;19937;-80
2021/05/17 05:16:39;;;;;;;;;;;11.30;99.90;;;;;;5014633;28;19914;-79
2021/05/17 05:19:04;;;;;;;;;;;11.30;99.90;;;;;;5031755;28;19913;-79
2021/05/17 05:21:30;;;;;;;;;;;11.30;99.90;;;;;;5033759;28;19913;-80
2021/05/17 05:23:55;;;;;;;;;;;11.30;99.90;;;;;;5034247;28;19917;-80
2021/05/17 05:31:28;;;;;;;;;;;11.30;99.90;;;;;;5034128;28;19922;-80
2021/05/17 05:33:53;;;;;;;;;;;11.30;99.90;;;;;;5012785;28;19917;-80
2021/05/17 05:36:19;;;;;;;;;;;11.40;99.90;;;;;;5012954;28;20008;-80
2021/05/17 05:38:44;;;;;;;;;;;11.40;99.90;;;;;;5017604;28;19921;-80
2021/05/17 05:41:11;;;;;;;;;;;11.50;99.90;;;;;;5013031;28;19920;-81
2021/05/17 05:43:37;;;;;;;;;;;11.50;99.90;;;;;;5007024;28;20320;-82
2021/05/17 05:46:02;;;;;;;;;;;11.50;99.90;;;;;;5003909;28;20004;-83
2021/05/17 05:48:28;;;;;;;;;;;11.60;99.90;;;;;;5028824;28;19922;-82
2021/05/17 05:50:54;;;;;;;;;;;11.60;99.90;;;;;;5011989;28;19914;-82
2021/05/17 05:53:19;;;;;;;;;;;11.60;99.90;;;;;;5026592;28;19919;-82
2021/05/17 05:55:46;;;;;;;;;;;11.60;99.90;;;;;;5025947;28;19918;-82
2021/05/17 05:58:12;;;;;;;;;;;11.70;99.90;;;;;;5009406;28;20020;-82
2021/05/17 06:00:38;;;;;;;;;;;11.70;99.90;;;;;;5010264;28;19952;-81
2021/05/17 06:03:05;;;;;;;;;;;11.70;99.90;;;;;;5030532;28;19920;-81
2021/05/17 06:05:31;;;;;;;;;;;11.70;99.90;;;;;;5036153;28;19905;-81
2021/05/17 06:07:58;;;;;;;;;;;11.70;99.90;;;;;;5032865;28;19914;-81
2021/05/17 06:10:24;;;;;;;;;;;11.70;99.90;;;;;;5006080;28;19922;-80
2021/05/17 06:12:49;;;;;;;;;;;11.70;99.90;;;;;;5017509;28;19921;-80
2021/05/17 06:15:15;;;;;;;;;;;11.80;99.90;;;;;;5053899;28;19936;-80
2021/05/17 06:17:42;;;;;;;;;;;11.70;99.90;;;;;;5025461;28;19897;-80
2021/05/17 06:20:08;;;;;;;;;;;11.70;99.90;;;;;;5017832;28;19918;-79
2021/05/17 06:22:36;;;;;;;;;;;11.80;99.90;;;;;;5039347;28;19945;-80
2021/05/17 06:25:04;;;;;;;;;;;11.90;99.90;;;;;;5019774;28;19909;-80
2021/05/17 06:27:29;;;;;;;;;;;11.80;99.90;;;;;;5041328;28;19904;-80
2021/05/17 06:29:56;;;;;;;;;;;11.90;99.90;;;;;;5046959;28;19917;-80
2021/05/17 06:32:23;;;;;;;;;;;11.90;99.90;;;;;;5028903;28;20338;-80
2021/05/17 06:34:49;;;;;;;;;;;11.90;99.90;;;;;;5029588;28;19925;-80
2021/05/17 06:37:14;;;;;;;;;;;11.90;99.90;;;;;;5039064;28;19933;-80
2021/05/17 06:39:40;;;;;;;;;;;11.90;99.90;;;;;;5029407;28;19909;-79
2021/05/17 06:42:06;;;;;;;;;;;12.00;99.90;;;;;;5041089;28;19961;-80
2021/05/17 06:44:32;;;;;;;;;;;12.00;99.90;;;;;;5052267;28;19944;-80
2021/05/17 06:46:58;;;;;;;;;;;12.00;99.90;;;;;;5023517;28;19901;-79
2021/05/17 06:49:26;;;;;;;;;;;12.00;99.90;;;;;;5039606;28;19901;-80
2021/05/17 06:51:52;;;;;;;;;;;12.00;99.90;;;;;;5047765;28;19917;-79
2021/05/17 06:54:20;;;;;;;;;;;12.10;99.90;;;;;;5041678;28;19908;-78
2021/05/17 06:57:02;;;;;;;;;;;12.20;99.90;;;;;;5020541;28;19910;-79
2021/05/17 06:59:31;;;;;;;;;;;12.30;99.90;;;;;;5017756;28;20275;-78
2021/05/17 07:01:56;;;;;;;;;;;12.40;99.90;;;;;;5007023;28;19920;-78
2021/05/17 07:04:22;;;;;;;;;;;12.60;99.90;;;;;;5006460;28;20297;-79
2021/05/17 07:06:55;;;;;;;;;;;12.60;99.90;;;;;;5005419;28;19913;-82
2021/05/17 07:14:32;;;;;;;;;;;12.50;99.90;;;;;;4997451;28;20008;-82
2021/05/17 07:16:57;;;;;;;;;;;12.40;99.90;;;;;;4993536;28;19915;-82
2021/05/17 07:19:23;;;;;;;;;;;12.40;99.90;;;;;;4994386;28;19972;-82
2021/05/17 07:24:50;;;;;;;;;;;12.20;99.90;;;;;;4969747;28;19918;-81
2021/05/17 07:27:16;;;;;;;;;;;12.20;99.90;;;;;;5002060;28;19914;-81
2021/05/17 07:29:41;;;;;;;;;;;12.10;99.90;;;;;;5014440;28;19964;-80
2021/05/17 07:32:09;;;;;;;;;;;12.10;99.90;;;;;;5005824;28;19920;-81
2021/05/17 07:34:36;;;;;;;;;;;12.10;99.90;;;;;;4994029;28;20064;-82
2021/05/17 07:37:03;;;;;;;;;;;12.10;99.90;;;;;;4992304;28;19914;-82
2021/05/17 07:39:29;;;;;;;;;;;12.10;99.90;;;;;;4994869;28;19964;-82
2021/05/17 07:41:55;;;;;;;;;;;12.00;99.90;;;;;;4995752;28;19918;-79
2021/05/17 07:44:20;;;;;;;;;;;12.10;99.90;;;;;;4995584;28;20024;-85
2021/05/17 07:46:46;;;;;;;;;;;12.00;99.90;;;;;;5011190;28;19920;-84
2021/05/17 07:49:18;;;;;;;;;;;12.10;99.90;;;;;;4996206;28;19968;-84
2021/05/17 07:51:44;;;;;;;;;;;12.10;99.90;;;;;;5014467;28;19920;-85
2021/05/17 07:54:11;;;;;;;;;;;12.10;99.90;;;;;;4995947;28;20008;-85
2021/05/17 07:56:36;;;;;;;;;;;12.20;99.90;;;;;;5005201;28;19917;-85
2021/05/17 07:59:02;;;;;;;;;;;12.20;99.90;;;;;;4999937;28;20424;-85
2021/05/17 08:01:28;;;;;;;;;;;12.20;99.90;;;;;;4994435;28;20370;-83
2021/05/17 08:03:53;;;;;;;;;;;12.20;99.90;;;;;;4995649;28;19974;-87
2021/05/17 08:06:19;;;;;;;;;;;12.20;99.90;;;;;;4994638;28;20021;-85
2021/05/17 08:08:45;;;;;;;;;;;12.10;99.90;;;;;;4995100;28;20370;-83
2021/05/17 08:11:10;;;;;;;;;;;12.10;99.90;;;;;;4994848;28;19920;-82
2021/05/17 08:13:38;;;;;;;;;;;12.10;99.90;;;;;;4994759;28;20275;-83
2021/05/17 08:16:04;;;;;;;;;;;12.10;99.90;;;;;;4992790;28;19968;-80
2021/05/17 08:18:31;;;;;;;;;;;12.20;99.90;;;;;;4994103;28;19913;-81
2021/05/17 08:20:57;;;;;;;;;;;12.20;99.90;;;;;;5009502;28;19914;-82
2021/05/17 08:23:23;;;;;;;;;;;12.20;99.90;;;;;;5010381;28;19921;-85
2021/05/17 08:25:48;;;;;;;;;;;12.20;99.90;;;;;;5014706;28;19924;-81
2021/05/17 08:28:14;;;;;;;;;;;12.20;99.90;;;;;;5000096;28;19969;-86
2021/05/17 08:30:42;;;;;;;;;;;12.30;99.90;;;;;;4992057;28;19920;-83
2021/05/17 08:33:08;;;;;;;;;;;12.30;99.90;;;;;;4993330;28;20293;-86
2021/05/17 08:35:34;;;;;;;;;;;12.30;99.90;;;;;;4992928;28;19921;-82
2021/05/17 08:38:00;;;;;;;;;;;12.40;99.90;;;;;;4994416;28;19913;-83
2021/05/17 08:40:26;;;;;;;;;;;12.40;99.90;;;;;;4994473;28;20380;-84
2021/05/17 08:42:53;;;;;;;;;;;12.40;99.90;;;;;;4993756;28;19913;-85
2021/05/17 08:45:18;;;;;;;;;;;12.50;99.90;;;;;;4994574;28;19918;-84
2021/05/17 08:47:44;;;;;;;;;;;12.50;99.90;;;;;;4993609;28;19920;-85
2021/05/17 08:50:09;;;;;;;;;;;12.60;99.90;;;;;;4992872;28;19914;-85
2021/05/17 08:52:37;;;;;;;;;;;12.60;99.90;;;;;;4993325;28;20000;-85
2021/05/17 08:55:05;;;;;;;;;;;12.70;99.90;;;;;;4987609;28;19949;-86
2021/05/17 08:57:30;;;;;;;;;;;12.80;99.90;;;;;;5004488;28;20012;-83
2021/05/17 08:59:56;;;;;;;;;;;12.80;99.90;;;;;;4982532;28;19956;-82
2021/05/17 09:02:21;;;;;;;;;;;12.90;99.90;;;;;;5014025;28;20338;-82
2021/05/17 09:05:06;;;;;;;;;;;13.00;99.90;;;;;;5012027;28;20394;-82
2021/05/17 09:07:40;;;;;;;;;;;13.40;99.90;;;;;;5000546;28;19968;-82
2021/05/17 09:10:16;;;;;;;;;;;13.90;99.90;;;;;;4998380;28;20374;-82
2021/05/17 09:12:54;;;;;;;;;;;14.40;99.90;;;;;;4999912;28;19913;-82
2021/05/17 09:15:33;;;;;;;;;;;14.80;99.90;;;;;;5024900;28;19914;-82
2021/05/17 09:17:59;;;;;;;;;;;15.00;99.90;;;;;;5022918;28;20031;-83
2021/05/17 09:20:30;;;;;;;;;;;15.00;99.90;;;;;;5012509;28;19936;-82
2021/05/17 09:23:16;;;;;;;;;;;14.90;99.90;;;;;;5030020;28;19917;-82
2021/05/17 09:25:57;;;;;;;;;;;14.80;99.90;;;;;;5036504;28;19960;-83
2021/05/17 09:28:27;;;;;;;;;;;14.60;99.90;;;;;;5023507;28;19928;-80
2021/05/17 09:30:54;;;;;;;;;;;14.50;99.90;;;;;;5026379;28;19921;-80
2021/05/17 09:33:20;;;;;;;;;;;14.50;99.90;;;;;;5030861;28;19945;-81
2021/05/17 09:35:46;;;;;;;;;;;14.50;99.90;;;;;;5053370;28;19901;-83
2021/05/17 09:38:23;;;;;;;;;;;14.50;99.90;;;;;;5029057;28;20004;-82
2021/05/17 09:41:03;;;;;;;;;;;14.50;99.90;;;;;;5020242;28;19918;-81
2021/05/17 09:43:29;;;;;;;;;;;14.60;99.90;;;;;;5007674;28;20044;-81
2021/05/17 09:45:55;;;;;;;;;;;14.70;99.90;;;;;;5018835;28;19964;-81
2021/05/17 09:48:21;;;;;;;;;;;14.60;99.90;;;;;;5020879;28;20342;-81
2021/05/17 09:50:56;;;;;;;;;;;14.50;99.90;;;;;;5011036;28;20004;-83
2021/05/17 09:53:26;;;;;;;;;;;14.50;99.90;;;;;;5007672;28;19918;-83
2021/05/17 09:55:52;;;;;;;;;;;14.60;99.90;;;;;;5000966;28;19913;-82
2021/05/17 09:58:30;;;;;;;;;;;14.70;99.90;;;;;;5018073;28;19924;-82
2021/05/17 10:01:03;;;;;;;;;;;14.90;99.90;;;;;;5015579;28;20294;-82
2021/05/17 10:03:32;;;;;;;;;;;15.10;99.90;;;;;;5018003;28;19967;-83
2021/05/17 10:05:58;;;;;;;;;;;15.20;99.90;;;;;;4989574;28;20380;-83
2021/05/17 10:08:23;;;;;;;;;;;15.30;99.90;;;;;;5017845;28;19918;-83
2021/05/17 10:10:49;;;;;;;;;;;15.30;99.90;;;;;;4999455;28;20369;-82
2021/05/17 10:13:15;;;;;;;;;;;15.10;99.90;;;;;;5001691;28;19914;-83
2021/05/17 10:15:41;;;;;;;;;;;14.90;99.90;;;;;;5029961;28;20449;-87
2021/05/17 10:18:06;;;;;;;;;;;14.70;99.90;;;;;;4984096;28;20008;-83
2021/05/17 10:20:32;;;;;;;;;;;14.00;99.90;;;;;;5011422;28;19924;-83
2021/05/17 10:22:57;;;;;;;;;;;13.50;99.90;;;;;;4997846;28;19936;-81
2021/05/17 10:25:27;;;;;;;;;;;13.30;99.90;;;;;;5014458;28;20376;-80
2021/05/17 10:27:54;;;;;;;;;;;13.20;99.90;;;;;;5010418;28;19922;-82
2021/05/17 10:30:28;;;;;;;;;;;13.20;99.90;;;;;;4991967;28;19914;-81
2021/05/17 10:32:56;;;;;;;;;;;13.10;99.90;;;;;;5008079;28;19953;-81
2021/05/17 10:35:26;;;;;;;;;;;13.10;99.90;;;;;;5012615;28;19922;-81
2021/05/17 10:38:12;;;;;;;;;;;13.00;99.90;;;;;;5013563;28;19980;-82
2021/05/17 10:40:40;;;;;;;;;;;12.80;99.90;;;;;;5046754;28;19917;-78
2021/05/17 10:43:13;;;;;;;;;;;12.40;99.90;;;;;;5015268;28;19913;-82
2021/05/17 10:48:19;;;;;;;;;;;12.30;99.90;;;;;;5012858;28;19913;-81
2021/05/17 10:50:46;;;;;;;;;;;12.30;99.90;;;;;;5011601;28;19913;-80
2021/05/17 10:53:30;;;;;;;;;;;12.30;99.90;;;;;;5008589;28;19917;-81
2021/05/17 10:55:56;;;;;;;;;;;12.30;99.90;;;;;;5010546;28;20344;-80
2021/05/17 11:00:22;;;;;;;;;;;12.30;99.90;;;;;;5014495;28;19985;-82
2021/05/17 11:01:28;;;;;;;;;;;12.20;99.90;;;;;;4996633;28;19914;-82
2021/05/17 11:04:12;;;;;;;;;;;12.20;99.90;;;;;;4990011;28;19918;-81
2021/05/17 11:06:40;;;;;;;;;;;12.30;99.90;;;;;;4996593;28;19929;-81
2021/05/17 11:09:06;;;;;;;;;;;12.30;99.90;;;;;;5006230;28;20016;-80
2021/05/17 11:11:32;;;;;;;;;;;12.30;99.90;;;;;;5038688;28;20027;-81
2021/05/17 11:14:16;;;;;;;;;;;12.20;99.90;;;;;;4996996;28;20070;-81
2021/05/17 11:16:57;;;;;;;;;;;12.00;99.90;;;;;;5012038;28;19967;-83
2021/05/17 11:19:23;;;;;;;;;;;12.00;99.90;;;;;;5012469;28;19914;-79
2021/05/17 11:21:58;;;;;;;;;;;12.00;99.90;;;;;;5015734;28;19921;-81
2021/05/17 11:24:25;;;;;;;;;;;12.00;99.90;;;;;;5011408;28;19914;-80
2021/05/17 11:26:52;;;;;;;;;;;11.90;99.90;;;;;;5016653;28;19914;-79
2021/05/17 11:29:35;;;;;;;;;;;11.90;99.90;;;;;;5017945;28;19913;-79
2021/05/17 11:32:13;;;;;;;;;;;11.90;99.90;;;;;;5014447;28;19957;-80
2021/05/17 11:34:58;;;;;;;;;;;12.00;99.90;;;;;;5004748;28;19913;-78
2021/05/17 11:37:23;;;;;;;;;;;12.00;99.90;;;;;;5011439;28;19914;-79
2021/05/17 11:39:49;;;;;;;;;;;12.10;99.90;;;;;;5015288;28;19925;-79
2021/05/17 11:42:17;;;;;;;;;;;12.30;99.90;;;;;;5014826;28;20448;-79
2021/05/17 11:47:19;;;;;;;;;;;12.40;99.90;;;;;;5006019;28;19914;-81
2021/05/17 11:49:47;;;;;;;;;;;12.60;99.90;;;;;;5007926;28;20442;-81
2021/05/17 11:52:14;;;;;;;;;;;12.70;99.90;;;;;;5028480;28;19932;-81
2021/05/17 11:54:51;;;;;;;;;;;12.90;99.90;;;;;;4999910;28;19921;-82
2021/05/17 11:57:18;;;;;;;;;;;13.00;99.90;;;;;;5005142;28;20260;-82
2021/05/17 11:59:43;;;;;;;;;;;13.30;99.90;;;;;;5014680;28;19917;-80
2021/05/17 12:02:10;;;;;;;;;;;13.40;99.90;;;;;;5023161;28;19921;-83
2021/05/17 12:04:40;;;;;;;;;;;13.50;99.90;;;;;;5026076;28;19914;-82
2021/05/17 12:07:06;;;;;;;;;;;13.60;99.90;;;;;;4999769;28;19913;-81
2021/05/17 12:09:37;;;;;;;;;;;13.70;99.90;;;;;;5020096;28;19958;-83
2021/05/17 12:12:16;;;;;;;;;;;14.10;99.90;;;;;;5033139;28;19956;-82
2021/05/17 12:14:46;;;;;;;;;;;14.40;99.90;;;;;;5026430;28;19918;-84
2021/05/17 12:17:18;;;;;;;;;;;14.30;99.90;;;;;;5037461;28;19902;-85
2021/05/17 12:19:45;;;;;;;;;;;14.40;99.90;;;;;;5035953;28;19908;-85
2021/05/17 12:22:12;;;;;;;;;;;14.50;99.90;;;;;;5037732;28;19940;-85
2021/05/17 12:24:37;;;;;;;;;;;14.50;99.90;;;;;;5039171;28;19912;-81
2021/05/17 12:27:04;;;;;;;;;;;14.60;99.90;;;;;;5034699;28;19917;-82
2021/05/17 12:29:46;;;;;;;;;;;14.20;99.90;;;;;;5014847;28;19922;-80
2021/05/17 12:32:12;;;;;;;;;;;13.60;99.90;;;;;;4986336;28;19925;-80
2021/05/17 12:34:37;;;;;;;;;;;13.20;99.90;;;;;;5004641;28;19919;-83
2021/05/17 12:37:03;;;;;;;;;;;12.80;99.90;;;;;;5004367;28;19920;-84
2021/05/17 12:39:29;;;;;;;;;;;12.60;99.90;;;;;;4998370;28;19920;-83
2021/05/17 12:41:55;;;;;;;;;;;12.50;99.90;;;;;;5014407;28;19921;-82
2021/05/17 12:44:30;;;;;;;;;;;12.40;99.90;;;;;;5012908;28;19913;-85
2021/05/17 12:47:03;;;;;;;;;;;12.30;99.90;;;;;;5011281;28;20008;-84
2021/05/17 12:49:41;;;;;;;;;;;12.30;99.90;;;;;;4994729;28;19964;-83
2021/05/17 12:52:07;;;;;;;;;;;12.40;99.90;;;;;;5013743;28;20267;-88
2021/05/17 12:54:32;;;;;;;;;;;12.60;99.90;;;;;;4998125;28;19920;-84
2021/05/17 12:57:05;;;;;;;;;;;12.70;99.90;;;;;;5004668;28;20023;-84
2021/05/17 12:59:43;;;;;;;;;;;13.00;99.90;;;;;;5012867;28;19917;-81
2021/05/17 13:02:09;;;;;;;;;;;13.20;99.90;;;;;;5007991;28;19913;-80
2021/05/17 13:04:34;;;;;;;;;;;13.40;99.90;;;;;;5008122;28;19913;-82
2021/05/17 13:07:02;;;;;;;;;;;13.60;99.90;;;;;;5012428;28;20297;-85
2021/05/17 13:09:28;;;;;;;;;;;13.70;99.90;;;;;;4993793;28;19918;-86
2021/05/17 13:11:54;;;;;;;;;;;13.90;99.90;;;;;;4996215;28;20277;-81
2021/05/17 13:14:21;;;;;;;;;;;13.90;99.90;;;;;;5010854;28;19943;-84
2021/05/17 13:16:52;;;;;;;;;;;14.00;99.90;;;;;;5015017;28;19913;-84
2021/05/17 13:19:37;;;;;;;;;;;14.00;99.90;;;;;;5025769;28;19909;-82
2021/05/17 13:25:14;;;;;;;;;;;13.90;99.90;;;;;;5017115;28;19909;-81
2021/05/17 13:33:07;;;;;;;;;;;13.70;99.90;;;;;;5018020;28;19917;-81
2021/05/17 13:35:33;;;;;;;;;;;13.80;99.90;;;;;;5016631;28;19918;-83
2021/05/17 13:37:58;;;;;;;;;;;14.00;99.90;;;;;;4999434;28;19921;-80
2021/05/17 13:40:24;;;;;;;;;;;14.40;99.90;;;;;;4998976;28;20305;-82
2021/05/17 13:42:49;;;;;;;;;;;14.70;99.90;;;;;;4999805;28;20370;-81
2021/05/17 13:45:16;;;;;;;;;;;14.70;99.90;;;;;;5011336;28;20008;-81
2021/05/17 13:47:42;;;;;;;;;;;15.00;99.90;;;;;;4999168;28;19914;-81
2021/05/17 13:50:09;;;;;;;;;;;15.10;99.90;;;;;;5016103;28;19913;-82
2021/05/17 13:52:35;;;;;;;;;;;15.30;99.90;;;;;;5010586;28;19922;-81
2021/05/17 13:55:00;;;;;;;;;;;15.60;99.90;;;;;;4998242;28;20008;-81
2021/05/17 13:57:26;;;;;;;;;;;15.70;99.90;;;;;;5017862;28;19924;-83
2021/05/17 13:59:52;;;;;;;;;;;15.60;99.90;;;;;;5020040;28;20004;-89
2021/05/17 14:02:19;;;;;;;;;;;15.30;99.90;;;;;;5000686;28;19909;-81
2021/05/17 14:04:44;;;;;;;;;;;14.90;99.90;;;;;;5000197;28;19938;-81
2021/05/17 14:07:11;;;;;;;;;;;14.80;99.90;;;;;;5013207;28;19918;-81
2021/05/17 14:09:36;;;;;;;;;;;14.80;99.90;;;;;;5008793;28;20397;-81
2021/05/17 14:12:02;;;;;;;;;;;14.70;99.90;;;;;;5015835;28;19985;-81
2021/05/17 14:14:28;;;;;;;;;;;14.70;99.90;;;;;;5008870;28;19913;-79
2021/05/17 14:16:57;;;;;;;;;;;14.90;99.90;;;;;;5016752;28;20365;-80
2021/05/17 14:19:24;;;;;;;;;;;15.30;99.90;;;;;;5010130;28;19913;-81
2021/05/17 14:21:50;;;;;;;;;;;15.70;99.90;;;;;;5016441;28;19967;-81
2021/05/17 14:24:15;;;;;;;;;;;15.50;99.90;;;;;;5000630;28;19996;-79
2021/05/17 14:26:41;;;;;;;;;;;15.10;99.90;;;;;;5017760;28;19959;-80
2021/05/17 14:29:06;;;;;;;;;;;14.80;99.90;;;;;;5010397;28;19913;-81
2021/05/17 14:31:32;;;;;;;;;;;14.60;99.90;;;;;;5019543;28;19963;-79
2021/05/17 14:34:02;;;;;;;;;;;14.80;99.90;;;;;;5033116;28;20405;-81
2021/05/17 14:36:28;;;;;;;;;;;14.50;99.90;;;;;;5032044;28;19913;-78
2021/05/17 14:38:54;;;;;;;;;;;14.50;99.90;;;;;;5035496;28;19898;-80
2021/05/17 14:41:19;;;;;;;;;;;14.80;99.90;;;;;;5029613;28;19924;-80
2021/05/17 14:43:45;;;;;;;;;;;14.90;99.90;;;;;;5033906;28;19922;-81
2021/05/17 14:46:10;;;;;;;;;;;14.80;99.90;;;;;;5024144;28;19922;-79
2021/05/17 14:48:36;;;;;;;;;;;14.60;99.90;;;;;;5013880;28;19913;-79
2021/05/17 14:51:01;;;;;;;;;;;14.70;99.90;;;;;;5016773;28;19917;-81
2021/05/17 14:53:27;;;;;;;;;;;14.90;99.90;;;;;;5020391;28;19921;-79